Time;durP1;ratioP1;P1;durP2;ratioP2;P2;SDS_P1;SDS_P2;PMS_P1;PMS_P2;Temp;Humidity;BMP_temperature;BMP_pressure;BME280_temperature;BME280_humidity;BME280_pressure;Samples;Min_cycle;Max_cycle;Signal;HPM_P1;HPM_P2
2021/09/07 00:02:24;;;;;;;2.97;2.28;;;;;;;10.01;72.59;100386.16;5100562;28;20070;-64
2021/09/07 00:05:11;;;;;;;5.13;2.40;;;;;;;10.04;74.00;100389.59;5088725;28;20016;-64
2021/09/07 00:07:57;;;;;;;4.85;2.50;;;;;;;10.04;73.62;100387.03;5090408;28;20324;-64
2021/09/07 00:10:44;;;;;;;3.75;2.50;;;;;;;10.06;72.67;100391.31;5095047;28;20317;-63
2021/09/07 00:13:30;;;;;;;5.63;2.42;;;;;;;10.06;72.73;100391.31;5091761;28;20028;-63
2021/09/07 00:16:16;;;;;;;4.97;2.50;;;;;;;10.05;72.88;100389.59;5092822;28;20032;-63
2021/09/07 00:19:02;;;;;;;3.80;2.42;;;;;;;10.10;73.39;100384.38;5092748;28;20019;-64
2021/09/07 00:21:47;;;;;;;7.47;2.70;;;;;;;10.09;73.15;100373.19;5098407;28;20322;-64
2021/09/07 00:24:33;;;;;;;3.13;2.28;;;;;;;10.09;72.48;100375.75;5072039;28;20032;-64
2021/09/07 00:27:19;;;;;;;5.93;2.33;;;;;;;10.06;73.14;100368.03;5100080;28;20016;-64
2021/09/07 00:30:06;;;;;;;2.67;2.20;;;;;;;10.04;73.41;100374.09;5099202;28;20035;-61
2021/09/07 00:32:52;;;;;;;3.08;2.08;;;;;;;10.06;73.65;100378.38;5098476;28;20031;-65
2021/09/07 00:35:38;;;;;;;4.80;2.20;;;;;;;9.99;73.93;100372.38;5087291;28;20036;-65
2021/09/07 00:38:24;;;;;;;3.92;2.08;;;;;;;9.94;74.16;100360.34;5094243;28;20032;-65
2021/09/07 00:41:10;;;;;;;3.45;1.90;;;;;;;10.03;73.75;100370.63;5086415;28;20469;-65
2021/09/07 00:43:56;;;;;;;3.80;2.00;;;;;;;10.04;74.01;100371.50;5082461;28;20031;-65
2021/09/07 00:46:50;;;;;;;5.10;2.35;;;;;;;9.66;73.73;100314.00;5086186;28;20044;-63
2021/09/07 00:49:37;;;;;;;4.90;2.30;;;;;;;10.06;73.61;100374.91;5084011;28;20390;-63
2021/09/07 00:52:24;;;;;;;3.00;2.03;;;;;;;10.05;73.36;100379.25;5094812;28;20141;-63
2021/09/07 00:55:11;;;;;;;3.47;2.13;;;;;;;9.95;72.68;100359.50;5083984;28;20127;-63
2021/09/07 00:58:00;;;;;;;4.45;1.70;;;;;;;9.88;72.98;100350.06;5098378;28;20032;-63
2021/09/07 01:00:45;;;;;;;3.40;2.10;;;;;;;10.04;73.22;100379.25;5085044;28;20028;-64
2021/09/07 01:03:31;;;;;;;3.78;1.73;;;;;;;10.07;73.11;100369.72;5099258;28;20229;-64
2021/09/07 01:06:17;;;;;;;2.40;1.60;;;;;;;10.09;73.24;100373.19;5098223;28;20024;-64
2021/09/07 01:09:03;;;;;;;3.45;1.98;;;;;;;10.11;74.02;100368.81;5097249;28;20032;-64
2021/09/07 01:11:49;;;;;;;6.82;1.63;;;;;;;10.07;73.17;100359.38;5090050;28;20035;-64
2021/09/07 01:14:38;;;;;;;3.88;1.90;;;;;;;9.78;73.68;100316.50;5095291;28;20089;-63
2021/09/07 01:17:24;;;;;;;2.08;1.45;;;;;;;10.12;72.94;100360.19;5100616;28;20023;-63
2021/09/07 01:20:10;;;;;;;3.78;1.80;;;;;;;10.14;73.10;100365.38;5093653;28;20027;-63
2021/09/07 01:22:57;;;;;;;4.15;1.67;;;;;;;10.14;73.30;100357.59;5103594;28;20038;-64
2021/09/07 01:25:43;;;;;;;2.38;1.75;;;;;;;10.11;73.22;100358.47;5088410;28;20020;-64
2021/09/07 01:28:29;;;;;;;4.40;1.98;;;;;;;10.16;72.08;100361.00;5101670;28;20054;-64
2021/09/07 01:31:16;;;;;;;4.35;1.70;;;;;;;10.15;72.46;100361.91;5103381;28;20032;-63
2021/09/07 01:34:02;;;;;;;2.85;1.88;;;;;;;10.18;72.94;100360.13;5089567;28;20095;-63
2021/09/07 01:36:49;;;;;;;2.65;1.38;;;;;;;10.10;72.48;100336.03;5104501;28;20020;-63
2021/09/07 01:39:36;;;;;;;4.05;1.60;;;;;;;10.18;73.14;100352.38;5101401;28;20074;-63
2021/09/07 01:42:24;;;;;;;3.35;1.80;;;;;;;10.19;72.00;100342.91;5095560;28;20032;-63
2021/09/07 01:45:10;;;;;;;2.83;1.75;;;;;;;10.19;72.73;100348.06;5098080;28;20083;-64
2021/09/07 01:47:56;;;;;;;2.58;1.50;;;;;;;10.23;72.79;100343.72;5101188;28;20239;-65
2021/09/07 01:50:43;;;;;;;2.42;1.30;;;;;;;10.15;73.09;100342.06;5099879;28;20020;-65
2021/09/07 01:53:28;;;;;;;2.53;1.58;;;;;;;10.19;72.41;100343.75;5101374;28;20055;-65
2021/09/07 01:56:14;;;;;;;2.10;1.70;;;;;;;10.23;73.24;100341.97;5103255;28;20258;-65
2021/09/07 01:59:00;;;;;;;2.15;1.55;;;;;;;10.25;72.97;100344.56;5089052;28;20369;-65
2021/09/07 02:01:46;;;;;;;3.10;1.65;;;;;;;10.24;73.12;100342.84;5101819;28;20279;-66
2021/09/07 02:04:33;;;;;;;2.65;1.67;;;;;;;10.25;72.52;100341.97;5098429;28;20040;-64
2021/09/07 02:07:19;;;;;;;3.97;1.55;;;;;;;10.25;73.02;100332.47;5093305;28;20025;-65
2021/09/07 02:10:06;;;;;;;2.67;1.30;;;;;;;9.93;72.69;100274.13;5093797;28;20043;-64
2021/09/07 02:12:52;;;;;;;4.57;2.28;;;;;;;10.21;73.13;100325.59;5098164;28;20088;-64
2021/09/07 02:15:38;;;;;;;4.25;1.75;;;;;;;10.15;72.49;100323.94;5100809;28;20040;-64
2021/09/07 02:18:24;;;;;;;4.07;1.58;;;;;;;10.14;73.08;100308.41;5094926;28;20102;-62
2021/09/07 02:21:09;;;;;;;3.17;1.65;;;;;;;10.18;73.04;100308.38;5092993;28;20032;-63
2021/09/07 02:23:55;;;;;;;3.25;1.60;;;;;;;10.22;72.97;100311.81;5090363;28;20209;-64
2021/09/07 02:26:42;;;;;;;3.42;1.70;;;;;;;10.21;73.09;100324.75;5098738;28;20031;-63
2021/09/07 02:29:28;;;;;;;3.35;1.60;;;;;;;10.22;72.62;100327.34;5096448;28;20070;-63
2021/09/07 02:32:14;;;;;;;2.78;1.88;;;;;;;10.23;73.35;100323.00;5087264;28;20037;-62
2021/09/07 02:35:00;;;;;;;2.92;1.60;;;;;;;10.22;73.62;100331.63;5102513;28;20016;-63
2021/09/07 02:37:45;;;;;;;3.92;1.80;;;;;;;10.06;73.34;100313.69;5091867;28;20036;-63
2021/09/07 02:40:31;;;;;;;1.92;1.42;;;;;;;10.18;72.87;100312.69;5100891;28;20111;-63
2021/09/07 02:43:17;;;;;;;3.22;1.70;;;;;;;10.19;73.63;100315.28;5090636;28;20024;-63
2021/09/07 02:46:03;;;;;;;2.58;1.50;;;;;;;10.10;74.05;100317.94;5095904;28;20033;-64
2021/09/07 02:48:49;;;;;;;2.28;1.83;;;;;;;10.19;74.05;100333.38;5100378;28;20330;-64
2021/09/07 02:51:35;;;;;;;3.20;1.45;;;;;;;10.22;73.68;100316.97;5086868;28;20057;-64
2021/09/07 02:54:22;;;;;;;1.67;1.52;;;;;;;10.27;73.83;100319.50;5100089;28;20028;-64
2021/09/07 02:57:07;;;;;;;4.38;1.40;;;;;;;10.27;73.75;100316.91;5083982;28;20036;-64
2021/09/07 02:59:56;;;;;;;4.43;1.73;;;;;;;10.25;73.71;100329.88;5084012;28;20216;-65
2021/09/07 03:02:41;;;;;;;3.88;1.50;;;;;;;10.25;74.46;100331.63;5101815;28;20585;-64
2021/09/07 03:05:27;;;;;;;4.00;1.70;;;;;;;10.15;73.89;100321.34;5084335;28;20016;-64
2021/09/07 03:08:13;;;;;;;3.20;1.45;;;;;;;10.22;73.43;100327.34;5084679;28;20024;-64
2021/09/07 03:10:59;;;;;;;1.70;1.45;;;;;;;10.13;72.83;100323.09;5090534;28;20368;-64
2021/09/07 03:13:45;;;;;;;2.58;1.90;;;;;;;10.17;73.39;100327.34;5095241;28;20137;-63
2021/09/07 03:16:33;;;;;;;3.25;1.65;;;;;;;10.26;73.17;100335.91;5100076;28;20012;-63
2021/09/07 03:19:19;;;;;;;1.77;1.40;;;;;;;10.22;73.37;100322.16;5098012;28;20028;-63
2021/09/07 03:22:05;;;;;;;3.15;1.40;;;;;;;10.24;74.22;100325.56;5087638;28;20081;-66
2021/09/07 03:24:51;;;;;;;3.95;1.70;;;;;;;10.22;74.06;100327.34;5099545;28;20321;-64
2021/09/07 03:27:37;;;;;;;4.88;1.52;;;;;;;10.21;73.67;100323.03;5100525;28;20020;-63
2021/09/07 03:30:24;;;;;;;3.47;2.00;;;;;;;10.24;74.19;100322.13;5096264;28;20020;-64
2021/09/07 03:33:10;;;;;;;2.88;1.80;;;;;;;10.17;73.93;100321.31;5097394;28;20016;-64
2021/09/07 03:35:56;;;;;;;4.93;1.80;;;;;;;10.24;74.51;100328.16;5076004;28;20028;-64
2021/09/07 03:38:41;;;;;;;4.70;1.75;;;;;;;10.12;74.13;100305.84;5100197;28;20074;-64
2021/09/07 03:41:27;;;;;;;2.88;1.70;;;;;;;10.22;74.49;100323.88;5091430;28;20032;-62
2021/09/07 03:44:13;;;;;;;2.75;1.58;;;;;;;10.21;75.04;100332.53;5091100;28;20024;-62
2021/09/07 03:46:59;;;;;;;3.63;1.90;;;;;;;10.23;75.22;100329.03;5090075;28;20031;-63
2021/09/07 03:49:45;;;;;;;4.70;1.95;;;;;;;10.28;75.72;100326.41;5079293;28;20036;-63
2021/09/07 03:52:31;;;;;;;2.90;1.58;;;;;;;10.22;76.10;100337.69;5088250;28;20051;-62
2021/09/07 03:55:16;;;;;;;2.10;1.80;;;;;;;10.18;76.01;100336.84;5094147;28;20030;-62
2021/09/07 03:58:02;;;;;;;2.20;1.70;;;;;;;10.21;76.10;100322.16;5099786;28;20019;-62
2021/09/07 04:00:48;;;;;;;2.30;1.65;;;;;;;10.22;77.18;100322.16;5096776;28;20043;-63
2021/09/07 04:03:34;;;;;;;3.25;1.80;;;;;;;10.31;75.69;100326.38;5100592;28;20032;-63
2021/09/07 04:06:20;;;;;;;2.88;1.90;;;;;;;10.35;76.20;100333.28;5100448;28;21120;-63
2021/09/07 04:09:07;;;;;;;3.85;1.52;;;;;;;10.34;76.22;100335.00;5095168;28;20024;-63
2021/09/07 04:11:52;;;;;;;4.63;2.45;;;;;;;10.35;76.26;100331.53;5100105;28;20031;-62
2021/09/07 04:14:38;;;;;;;5.97;2.03;;;;;;;10.25;76.77;100322.13;5089472;28;20040;-63
2021/09/07 04:17:24;;;;;;;2.67;1.52;;;;;;;10.35;76.46;100325.50;5091812;28;20108;-64
2021/09/07 04:20:11;;;;;;;2.28;1.40;;;;;;;10.37;76.92;100326.34;5078758;28;20047;-63
2021/09/07 04:22:57;;;;;;;4.57;1.83;;;;;;;10.33;76.69;100304.78;5096660;28;20225;-61
2021/09/07 04:25:43;;;;;;;3.50;1.83;;;;;;;10.37;77.42;100313.41;5097512;28;20380;-61
2021/09/07 04:28:29;;;;;;;2.40;1.67;;;;;;;10.37;77.23;100323.75;5077948;28;20055;-62
2021/09/07 04:31:15;;;;;;;2.88;2.00;;;;;;;10.45;77.26;100323.69;5095535;28;20067;-62
2021/09/07 04:34:02;;;;;;;5.03;2.03;;;;;;;10.45;77.03;100329.72;5093464;28;20323;-61
2021/09/07 04:36:48;;;;;;;4.85;1.55;;;;;;;10.45;77.35;100334.88;5091462;28;20101;-61
2021/09/07 04:39:34;;;;;;;1.67;1.58;;;;;;;10.49;76.67;100340.91;5085205;28;20044;-61
2021/09/07 04:42:20;;;;;;;10.52;2.63;;;;;;;10.45;76.92;100334.88;5071124;28;20087;-62
2021/09/07 04:45:06;;;;;;;3.08;1.73;;;;;;;10.52;76.58;100336.53;5067694;28;20285;-61
2021/09/07 04:47:53;;;;;;;2.03;1.65;;;;;;;10.45;77.08;100332.31;5073806;28;20276;-60
2021/09/07 04:50:40;;;;;;;2.63;1.52;;;;;;;10.47;76.88;100321.94;5070766;28;20329;-62
2021/09/07 04:53:25;;;;;;;3.75;1.98;;;;;;;10.46;76.90;100331.44;5077943;28;20051;-61
2021/09/07 04:56:11;;;;;;;2.17;1.60;;;;;;;10.47;76.92;100330.53;5076933;28;20092;-61
2021/09/07 04:58:57;;;;;;;4.45;2.03;;;;;;;10.53;76.73;100327.91;5074883;28;20036;-61
2021/09/07 05:01:43;;;;;;;3.50;1.90;;;;;;;10.45;76.56;100319.34;5063390;28;20056;-60
2021/09/07 05:04:29;;;;;;;8.75;4.78;;;;;;;10.34;76.10;100295.31;5077379;28;20032;-66
2021/09/07 05:07:15;;;;;;;2.63;1.75;;;;;;;10.45;75.03;100308.16;5073482;28;20024;-61
2021/09/07 05:10:01;;;;;;;5.75;2.13;;;;;;;10.60;74.90;100318.31;5076108;28;20026;-63
2021/09/07 05:12:47;;;;;;;4.50;2.17;;;;;;;10.60;75.20;100317.47;5067769;28;20104;-63
2021/09/07 05:15:32;;;;;;;3.42;1.98;;;;;;;10.56;75.67;100300.25;5073306;28;20032;-62
2021/09/07 05:18:18;;;;;;;6.50;2.10;;;;;;;10.68;74.48;100310.47;5067753;28;20351;-63
2021/09/07 05:21:04;;;;;;;2.70;1.70;;;;;;;10.74;74.26;100304.38;5078447;28;20032;-62
2021/09/07 05:23:50;;;;;;;2.00;1.80;;;;;;;10.76;73.89;100307.78;5070882;28;20037;-62
2021/09/07 05:26:36;;;;;;;2.83;1.95;;;;;;;10.77;74.20;100302.56;5077684;28;20051;-63
2021/09/07 05:29:22;;;;;;;4.50;1.70;;;;;;;10.85;73.68;100305.94;5072464;28;20349;-62
2021/09/07 05:32:10;;;;;;;2.53;1.67;;;;;;;10.93;73.70;100311.03;5079319;28;20240;-62
2021/09/07 05:34:56;;;;;;;2.78;2.05;;;;;;;11.10;73.48;100305.63;5078819;28;20025;-62
2021/09/07 05:37:42;;;;;;;3.40;1.73;;;;;;;11.08;73.46;100312.56;5078693;28;20085;-62
2021/09/07 05:40:28;;;;;;;3.47;1.90;;;;;;;11.16;72.97;100313.31;5077666;28;20333;-62
2021/09/07 05:43:14;;;;;;;5.00;2.20;;;;;;;11.19;72.67;100323.66;5092018;28;20055;-63
2021/09/07 05:46:00;;;;;;;4.53;2.53;;;;;;;11.15;72.06;100316.78;5090275;28;20020;-63
2021/09/07 05:48:46;;;;;;;4.85;2.03;;;;;;;11.27;72.43;100317.50;5082872;28;20276;-62
2021/09/07 05:51:32;;;;;;;2.95;2.00;;;;;;;11.36;72.04;100326.00;5090979;28;20040;-62
2021/09/07 05:54:18;;;;;;;2.65;2.08;;;;;;;11.44;71.72;100327.63;5088508;28;20020;-62
2021/09/07 05:57:04;;;;;;;4.47;1.73;;;;;;;11.61;71.31;100332.56;5092393;28;20033;-62
2021/09/07 05:59:51;;;;;;;2.70;1.88;;;;;;;11.74;71.31;100321.09;5084937;28;20336;-62
2021/09/07 06:02:37;;;;;;;9.55;3.00;;;;;;;11.85;71.22;100332.16;5073558;28;20067;-62
2021/09/07 06:05:23;;;;;;;3.72;2.40;;;;;;;11.89;71.88;100314.81;5086771;28;20048;-62
2021/09/07 06:08:09;;;;;;;4.65;2.33;;;;;;;11.86;70.61;100310.53;5101469;28;20027;-63
2021/09/07 06:10:55;;;;;;;5.40;2.28;;;;;;;11.88;70.29;100318.28;5098713;28;20043;-64
2021/09/07 06:13:41;;;;;;;3.33;2.10;;;;;;;11.90;70.27;100311.34;5092902;28;20143;-61
2021/09/07 06:16:27;;;;;;;5.95;2.17;;;;;;;11.82;71.00;100308.03;5093964;28;20020;-63
2021/09/07 06:19:13;;;;;;;4.97;2.03;;;;;;;11.88;69.42;100308.75;5087790;28;20036;-64
2021/09/07 06:21:58;;;;;;;5.40;1.90;;;;;;;11.94;69.72;100305.22;5091808;28;20269;-63
2021/09/07 06:24:44;;;;;;;7.53;1.70;;;;;;;12.01;69.28;100299.06;5101804;28;20039;-62
2021/09/07 06:27:30;;;;;;;7.03;2.15;;;;;;;12.06;69.90;100306.78;5101505;28;20224;-62
2021/09/07 06:30:16;;;;;;;2.75;1.90;;;;;;;12.18;69.26;100301.34;5102362;28;20017;-63
2021/09/07 06:33:02;;;;;;;6.55;2.40;;;;;;;12.15;69.88;100298.81;5102142;28;20032;-63
2021/09/07 06:35:48;;;;;;;3.05;1.90;;;;;;;12.17;68.54;100294.47;5087955;28;20036;-61
2021/09/07 06:38:34;;;;;;;4.00;2.20;;;;;;;12.18;69.42;100298.75;5099352;28;20343;-63
2021/09/07 06:41:20;;;;;;;3.20;2.10;;;;;;;12.16;68.49;100294.50;5080049;28;20151;-62
2021/09/07 06:44:06;;;;;;;4.07;1.88;;;;;;;12.20;68.66;100294.41;5081721;28;20103;-62
2021/09/07 06:46:51;;;;;;;4.00;1.88;;;;;;;12.24;68.38;100298.66;5083047;28;20074;-63
2021/09/07 06:49:37;;;;;;;4.32;2.33;;;;;;;12.34;68.89;100296.75;5087830;28;20214;-63
2021/09/07 06:52:23;;;;;;;7.20;2.47;;;;;;;12.50;68.47;100294.72;5087007;28;20020;-62
2021/09/07 06:55:09;;;;;;;7.50;2.00;;;;;;;12.60;68.74;100290.19;5081487;28;20036;-63
2021/09/07 06:57:56;;;;;;;3.67;1.92;;;;;;;12.73;67.97;100293.41;5073250;28;20067;-62
2021/09/07 07:00:42;;;;;;;5.25;1.88;;;;;;;12.94;67.01;100289.50;5059735;28;20027;-63
2021/09/07 07:03:29;;;;;;;4.15;2.05;;;;;;;13.03;67.30;100294.50;5082851;28;20021;-63
2021/09/07 07:06:15;;;;;;;5.10;1.90;;;;;;;13.11;67.69;100287.38;5080269;28;20016;-63
2021/09/07 07:09:01;;;;;;;3.65;1.60;;;;;;;13.13;66.97;100287.34;5094951;28;20028;-64
2021/09/07 07:11:47;;;;;;;2.72;1.80;;;;;;;13.18;67.37;100295.91;5081992;28;20053;-65
2021/09/07 07:14:33;;;;;;;2.72;1.73;;;;;;;13.18;67.89;100295.03;5083054;28;20027;-64
2021/09/07 07:17:19;;;;;;;4.55;1.73;;;;;;;13.16;66.20;100297.69;5081642;28;20025;-63
2021/09/07 07:20:05;;;;;;;2.42;1.40;;;;;;;13.10;66.97;100298.66;5078346;28;20317;-63
2021/09/07 07:22:51;;;;;;;7.47;1.58;;;;;;;13.13;66.12;100284.75;5082307;28;20024;-64
2021/09/07 07:25:37;;;;;;;3.45;1.73;;;;;;;13.12;66.64;100296.03;5083059;28;20073;-63
2021/09/07 07:28:23;;;;;;;3.33;1.63;;;;;;;13.18;66.55;100290.72;5082775;28;20082;-64
2021/09/07 07:31:09;;;;;;;4.85;1.88;;;;;;;13.05;66.50;100284.06;5082768;28;20221;-62
2021/09/07 07:33:54;;;;;;;3.70;2.00;;;;;;;12.97;66.04;100294.63;5082453;28;20024;-65
2021/09/07 07:36:40;;;;;;;3.30;1.50;;;;;;;12.98;65.59;100300.69;5081320;28;20303;-65
2021/09/07 07:39:26;;;;;;;3.65;1.77;;;;;;;12.94;66.12;100292.09;5082403;28;20040;-63
2021/09/07 07:42:12;;;;;;;6.22;1.90;;;;;;;13.01;66.42;100285.00;5077727;28;20040;-64
2021/09/07 07:44:58;;;;;;;6.65;2.28;;;;;;;13.01;66.98;100298.88;5080187;28;20024;-64
2021/09/07 07:47:44;;;;;;;4.32;1.90;;;;;;;12.96;67.27;100290.31;5080340;28;20033;-64
2021/09/07 07:50:30;;;;;;;3.10;1.65;;;;;;;12.97;66.87;100296.34;5080930;28;20044;-63
2021/09/07 07:53:16;;;;;;;4.32;1.90;;;;;;;12.98;67.95;100292.88;5080122;28;20321;-63
2021/09/07 07:56:03;;;;;;;4.40;1.70;;;;;;;13.06;67.69;100304.81;5079839;28;20358;-63
2021/09/07 07:58:49;;;;;;;4.80;2.20;;;;;;;12.99;67.10;100284.19;5074906;28;20321;-65
2021/09/07 08:01:35;;;;;;;3.65;2.03;;;;;;;13.05;66.62;100290.09;5079525;28;20029;-65
2021/09/07 08:04:21;;;;;;;4.70;2.22;;;;;;;13.00;67.32;100291.97;5079626;28;20107;-63
2021/09/07 08:07:07;;;;;;;4.93;1.60;;;;;;;12.84;68.02;100295.75;5080334;28;20189;-63
2021/09/07 08:09:53;;;;;;;3.67;1.90;;;;;;;12.90;68.23;100298.25;5079902;28;20031;-63
2021/09/07 08:12:39;;;;;;;5.80;2.25;;;;;;;12.82;67.87;100295.78;5081211;28;20115;-63
2021/09/07 08:15:25;;;;;;;4.07;1.88;;;;;;;12.81;67.98;100286.28;5078398;28;20029;-64
2021/09/07 08:18:10;;;;;;;7.65;2.10;;;;;;;12.85;68.02;100281.88;5079488;28;20040;-62
2021/09/07 08:20:56;;;;;;;6.80;2.08;;;;;;;12.91;68.28;100284.34;5077904;28;20074;-62
2021/09/07 08:23:42;;;;;;;3.20;1.95;;;;;;;13.01;68.29;100277.19;5078941;28;20041;-62
2021/09/07 08:26:28;;;;;;;5.20;2.38;;;;;;;13.03;67.54;100285.84;5080466;28;20040;-63
2021/09/07 08:29:14;;;;;;;10.45;2.38;;;;;;;13.07;68.00;100279.69;5062217;28;20033;-62
2021/09/07 08:32:00;;;;;;;6.82;2.25;;;;;;;13.10;67.49;100287.41;5077623;28;20036;-62
2021/09/07 08:34:46;;;;;;;4.32;2.55;;;;;;;13.13;66.96;100282.16;5076489;28;20088;-63
2021/09/07 08:37:31;;;;;;;8.27;2.65;;;;;;;13.17;66.94;100277.72;5061997;28;20060;-63
2021/09/07 08:40:17;;;;;;;4.65;2.15;;;;;;;13.23;67.98;100282.78;5091344;28;20040;-63
2021/09/07 08:43:05;;;;;;;4.70;1.92;;;;;;;12.93;66.88;100233.19;5082696;28;20020;-63
2021/09/07 08:45:53;;;;;;;4.82;2.33;;;;;;;12.86;68.08;100237.66;5097674;28;20115;-63
2021/09/07 08:48:39;;;;;;;5.55;2.38;;;;;;;13.04;68.02;100282.34;5099531;28;20016;-62
2021/09/07 08:51:25;;;;;;;6.95;2.25;;;;;;;13.07;66.63;100282.28;5100331;28;20020;-62
2021/09/07 08:54:11;;;;;;;4.55;2.20;;;;;;;13.02;67.45;100269.38;5099913;28;20039;-62
2021/09/07 08:56:57;;;;;;;5.40;2.35;;;;;;;12.94;67.21;100269.53;5099002;28;20043;-64
2021/09/07 08:59:43;;;;;;;7.65;2.60;;;;;;;13.10;67.61;100282.22;5093729;28;20024;-62
2021/09/07 09:02:29;;;;;;;4.00;2.22;;;;;;;13.15;68.25;100279.50;5083034;28;20028;-63
2021/09/07 09:05:25;;;;;;;3.70;2.33;;;;;;;12.95;67.06;100252.19;5098619;28;20031;-62
2021/09/07 09:08:16;;;;;;;4.07;2.10;;;;;;;13.17;67.88;100273.38;5098421;28;20040;-63
2021/09/07 09:11:07;;;;;;;8.35;3.08;;;;;;;13.21;67.82;100281.97;5091186;28;20024;-61
2021/09/07 09:13:53;;;;;;;5.38;2.30;;;;;;;13.18;67.81;100277.72;5081463;28;20047;-62
2021/09/07 09:16:39;;;;;;;4.35;2.33;;;;;;;13.18;68.35;100280.31;5097082;28;20028;-62
2021/09/07 09:19:25;;;;;;;5.22;2.25;;;;;;;13.21;68.70;100282.84;5095582;28;20032;-63
2021/09/07 09:22:10;;;;;;;3.85;2.13;;;;;;;13.24;68.98;100287.09;5094702;28;20024;-61
2021/09/07 09:24:56;;;;;;;4.80;2.20;;;;;;;13.22;69.33;100281.91;5074556;28;20035;-62
2021/09/07 09:27:42;;;;;;;4.63;2.08;;;;;;;13.19;70.21;100286.34;5093106;28;20028;-62
2021/09/07 09:30:30;;;;;;;5.85;2.40;;;;;;;13.19;71.45;100288.97;5090872;28;20091;-62
2021/09/07 09:33:19;;;;;;;4.10;2.40;;;;;;;13.22;71.04;100287.13;5091321;28;20028;-62
2021/09/07 09:36:05;;;;;;;6.07;2.33;;;;;;;13.17;71.88;100282.91;5097440;28;20024;-62
2021/09/07 09:38:51;;;;;;;4.90;2.03;;;;;;;13.15;71.51;100290.75;5096122;28;20028;-62
2021/09/07 09:41:50;;;;;;;3.50;2.40;;;;;;;13.03;71.14;100281.47;5082921;28;20024;-60
2021/09/07 09:44:37;;;;;;;6.13;2.47;;;;;;;13.09;70.30;100283.09;5101165;28;20039;-61
2021/09/07 09:47:44;;;;;;;6.10;2.50;;;;;;;13.10;70.78;100287.41;5098656;28;20225;-63
2021/09/07 09:50:31;;;;;;;3.78;2.65;;;;;;;13.15;71.06;100285.56;5093798;28;20024;-62
2021/09/07 09:53:21;;;;;;;4.78;2.70;;;;;;;13.13;72.00;100298.59;5100920;28;20034;-62
2021/09/07 09:56:07;;;;;;;3.92;2.22;;;;;;;13.10;70.22;100283.06;5099427;28;20038;-61
2021/09/07 09:58:55;;;;;;;4.53;2.67;;;;;;;13.15;71.40;100285.56;5097103;28;20056;-62
2021/09/07 10:01:41;;;;;;;4.20;2.42;;;;;;;13.09;70.97;100298.69;5098181;28;20036;-62
2021/09/07 10:04:29;;;;;;;3.97;2.17;;;;;;;13.02;70.90;100299.72;5100382;28;20051;-62
2021/09/07 10:07:17;;;;;;;3.05;1.92;;;;;;;12.82;70.98;100274.16;5100109;28;20371;-63
2021/09/07 10:10:04;;;;;;;3.28;1.88;;;;;;;12.93;70.06;100299.03;5081502;28;20095;-62
2021/09/07 10:12:56;;;;;;;2.65;1.90;;;;;;;12.69;70.75;100244.97;5096956;28;20577;-63
2021/09/07 10:15:49;;;;;;;5.82;1.92;;;;;;;12.70;70.68;100249.28;5096368;28;20089;-62
2021/09/07 10:24:58;;;;;;;2.85;1.92;;;;;;;13.16;70.75;100302.88;5101715;28;20100;-63
2021/09/07 10:28:04;;;;;;;5.38;2.17;;;;;;;13.22;68.06;100307.09;5101694;28;20042;-64
2021/09/07 10:31:03;;;;;;;3.25;2.15;;;;;;;13.20;68.83;100301.91;5083593;28;20078;-63
2021/09/07 10:33:52;;;;;;;6.40;2.13;;;;;;;13.32;69.58;100297.34;5087627;28;20066;-64
2021/09/07 10:37:07;;;;;;;4.38;2.20;;;;;;;13.41;69.43;100302.34;5102269;28;20024;-63
2021/09/07 10:39:54;;;;;;;3.83;2.10;;;;;;;13.40;69.87;100293.69;5101284;28;20233;-64
2021/09/07 10:42:48;;;;;;;3.10;2.00;;;;;;;13.43;69.38;100295.38;5102170;28;20055;-63
2021/09/07 10:45:36;;;;;;;2.95;1.98;;;;;;;13.41;68.92;100298.00;5101341;28;20371;-63
2021/09/07 10:48:33;;;;;;;4.80;2.13;;;;;;;13.45;68.03;100290.97;5101707;28;20039;-65
2021/09/07 10:51:19;;;;;;;4.80;2.10;;;;;;;13.45;69.19;100294.47;5094944;28;20281;-63
2021/09/07 10:54:08;;;;;;;2.58;2.00;;;;;;;13.45;69.05;100285.78;5098515;28;20244;-62
2021/09/07 10:56:56;;;;;;;2.55;2.10;;;;;;;13.41;69.14;100281.53;5099137;28;20032;-62
2021/09/07 10:59:53;;;;;;;3.50;2.20;;;;;;;13.51;68.40;100289.97;5093358;28;20028;-62
2021/09/07 11:02:48;;;;;;;3.33;2.10;;;;;;;13.46;68.93;100295.28;5093471;28;20063;-62
2021/09/07 11:05:37;;;;;;;2.67;2.03;;;;;;;13.52;68.79;100296.91;5099757;28;20028;-63
2021/09/07 11:08:38;;;;;;;4.05;2.20;;;;;;;13.45;68.88;100291.84;5083120;28;20091;-60
2021/09/07 11:11:27;;;;;;;2.75;1.70;;;;;;;13.55;69.78;100310.72;5100853;28;20028;-62
2021/09/07 11:14:14;;;;;;;4.43;2.50;;;;;;;13.56;69.56;100307.19;5101850;28;20028;-61
2021/09/07 11:17:00;;;;;;;5.95;2.10;;;;;;;13.59;70.34;100306.28;5101859;28;20023;-62
2021/09/07 11:20:18;;;;;;;3.70;2.15;;;;;;;13.70;70.02;100298.22;5101670;28;20020;-62
2021/09/07 11:23:15;;;;;;;5.60;2.03;;;;;;;13.74;69.92;100299.84;5075213;28;20093;-61
2021/09/07 11:26:04;;;;;;;4.93;2.35;;;;;;;13.49;69.21;100250.13;5092294;28;20020;-62
2021/09/07 11:28:50;;;;;;;3.35;2.50;;;;;;;13.75;69.30;100301.53;5094665;28;20086;-62
2021/09/07 11:31:36;;;;;;;4.13;2.30;;;;;;;13.68;69.24;100302.59;5100087;28;20104;-61
2021/09/07 11:34:21;;;;;;;2.08;1.88;;;;;;;13.64;69.66;100294.00;5101196;28;20029;-61
2021/09/07 11:37:18;;;;;;;3.33;2.30;;;;;;;13.69;69.91;100301.69;5101361;28;20027;-60
2021/09/07 11:40:11;;;;;;;5.60;2.10;;;;;;;13.74;70.48;100299.84;5100539;28;20050;-62
2021/09/07 11:42:58;;;;;;;2.55;1.98;;;;;;;13.71;71.11;100294.69;5086469;28;20036;-62
2021/09/07 11:45:44;;;;;;;2.45;2.00;;;;;;;13.79;70.31;100292.75;5086113;28;20028;-61
2021/09/07 11:48:31;;;;;;;3.03;2.20;;;;;;;13.73;70.30;100287.72;5100491;28;20027;-61
2021/09/07 11:51:26;;;;;;;4.93;2.17;;;;;;;13.67;69.79;100291.34;5085928;28;20032;-61
2021/09/07 11:54:16;;;;;;;7.00;2.10;;;;;;;13.58;70.18;100299.34;5100363;28;20028;-62
2021/09/07 11:57:02;;;;;;;4.97;2.22;;;;;;;13.63;71.07;100298.34;5081773;28;20036;-61
2021/09/07 12:00:00;;;;;;;5.15;2.20;;;;;;;13.68;70.37;100297.38;5088512;28;20373;-61
2021/09/07 12:02:46;;;;;;;3.83;2.38;;;;;;;13.68;70.90;100295.66;5099786;28;20024;-62
2021/09/07 12:05:51;;;;;;;5.75;1.75;;;;;;;13.60;71.68;100290.63;5083393;28;20035;-62
2021/09/07 12:08:44;;;;;;;3.95;2.00;;;;;;;13.62;72.19;100294.06;5086715;28;20225;-62
2021/09/07 12:11:31;;;;;;;5.28;2.28;;;;;;;13.52;72.07;100296.91;5101128;28;20051;-62
2021/09/07 12:14:21;;;;;;;3.10;2.20;;;;;;;13.24;72.29;100242.88;5099243;28;20044;-63
2021/09/07 12:17:15;;;;;;;2.88;2.05;;;;;;;13.20;72.80;100246.47;5099036;28;20042;-62
2021/09/07 12:20:13;;;;;;;4.55;2.10;;;;;;;13.49;72.62;100297.81;5100543;28;20582;-63
2021/09/07 12:23:00;;;;;;;2.78;2.00;;;;;;;13.56;71.97;100286.38;5100823;28;20038;-62
2021/09/07 12:25:46;;;;;;;4.68;1.90;;;;;;;13.53;72.90;100285.59;5098783;28;20032;-63
2021/09/07 12:28:33;;;;;;;4.72;2.38;;;;;;;13.50;72.72;100281.31;5099722;28;20020;-63
2021/09/07 12:31:21;;;;;;;2.63;1.98;;;;;;;13.51;73.63;100287.38;5085144;28;20049;-62
2021/09/07 12:34:07;;;;;;;4.25;2.35;;;;;;;13.47;73.23;100278.81;5097522;28;20023;-62
2021/09/07 12:36:53;;;;;;;3.67;2.03;;;;;;;13.55;72.62;100278.59;5098160;28;20035;-61
2021/09/07 12:39:39;;;;;;;3.85;2.33;;;;;;;13.48;72.73;100277.88;5085471;28;20052;-62
2021/09/07 12:42:25;;;;;;;3.03;2.17;;;;;;;13.53;73.52;100278.66;5098721;28;20066;-62
2021/09/07 12:45:10;;;;;;;4.53;2.08;;;;;;;13.56;73.70;100281.16;5099076;28;20078;-62
2021/09/07 12:47:56;;;;;;;2.88;2.15;;;;;;;13.45;73.96;100281.44;5098761;28;20028;-60
2021/09/07 12:50:43;;;;;;;2.85;2.03;;;;;;;13.52;73.17;100279.53;5083073;28;20040;-61
2021/09/07 12:53:35;;;;;;;2.42;1.90;;;;;;;13.57;73.12;100271.63;5098610;28;20028;-61
2021/09/07 12:56:22;;;;;;;4.32;2.33;;;;;;;13.58;73.34;100271.59;5097643;28;20043;-62
2021/09/07 12:59:08;;;;;;;4.15;2.10;;;;;;;13.56;73.56;100267.31;5099841;28;20260;-62
2021/09/07 13:01:54;;;;;;;3.92;2.20;;;;;;;13.56;73.48;100268.16;5088845;28;20044;-62
2021/09/07 13:04:40;;;;;;;2.50;1.98;;;;;;;13.53;73.74;100264.78;5095655;28;20040;-62